Terminal Aerodrome Forecast
Issued by NWS Louisville, KY

Home | Current Version | Previous Version | Text Only | Print | Product List | Glossary On
Versions: 1 2 3 4 5 6 7 8 9 10 11 12 13 14
467
FTUS43 KLMK 260529
TAFBWG
TAF
KBWG 260529Z 2606/2706 00000KT P6SM SKC
     FM260800 00000KT 4SM BR SCT003
      TEMPO 2610/2612 2SM BR
     FM261400 08004KT P6SM SCT040
     FM270000 VRB02KT P6SM SCT120=

USA.gov is the U.S. government's official web portal to all federal, state and local government web resources and services.